createdAt,value
2022-10-24T00:01:06.253Z,100563.59
2022-10-24T00:03:32.909Z,100565.50
2022-10-24T00:05:59.215Z,100581.69
2022-10-24T00:08:25.631Z,100577.34
2022-10-24T00:10:51.908Z,100570.91
2022-10-24T00:13:18.324Z,100565.75
2022-10-24T00:15:44.597Z,100560.13
2022-10-24T00:18:10.981Z,100546.03
2022-10-24T00:20:37.276Z,100521.53
2022-10-24T00:23:03.539Z,100489.44
2022-10-24T00:25:29.869Z,100493.19
2022-10-24T00:27:56.373Z,100529.06
2022-10-24T00:30:22.666Z,100563.28
2022-10-24T00:32:49.089Z,100561.66
2022-10-24T00:35:15.385Z,100578.66
2022-10-24T00:37:41.889Z,100584.06
2022-10-24T00:40:08.208Z,100574.91
2022-10-24T00:42:34.644Z,100580.28
2022-10-24T00:45:01.036Z,100567.63
2022-10-24T00:47:27.471Z,100571.38
2022-10-24T00:49:53.766Z,100578.66
2022-10-24T00:52:20.005Z,100563.28
2022-10-24T00:54:46.658Z,100558.97
2022-10-24T00:57:12.940Z,100556.28
2022-10-24T00:59:39.218Z,100558.97
2022-10-24T01:02:05.700Z,100542.78
2022-10-24T01:04:32.480Z,100540.94
2022-10-24T01:06:58.796Z,100534.69
2022-10-24T01:09:25.122Z,100549.25
2022-10-24T01:11:51.498Z,100526.84
2022-10-24T01:14:19.319Z,100507.97
2022-10-24T01:16:45.681Z,100511.50
2022-10-24T01:19:13.179Z,100518.78
2022-10-24T01:21:39.552Z,100514.22
2022-10-24T01:24:05.879Z,100512.56
2022-10-24T01:26:32.277Z,100496.38
2022-10-24T01:28:58.550Z,100506.59
2022-10-24T01:31:25.044Z,100497.44
2022-10-24T01:33:51.304Z,100498.28
2022-10-24T01:36:17.547Z,100493.13
2022-10-24T01:38:43.798Z,100490.19
2022-10-24T01:41:10.490Z,100492.06
2022-10-24T01:43:36.918Z,100486.66
2022-10-24T01:46:03.320Z,100483.97
2022-10-24T01:48:29.651Z,100472.38
2022-10-24T01:50:55.936Z,100465.59
2022-10-24T01:53:24.804Z,100458.31
2022-10-24T01:55:51.661Z,100453.50
2022-10-24T01:58:18.072Z,100440.03
2022-10-24T02:00:44.728Z,100442.97
2022-10-24T02:03:11.075Z,100440.53
2022-10-24T02:05:37.463Z,100427.88
2022-10-24T02:08:03.767Z,100444.03
2022-10-24T02:10:30.052Z,100446.75
2022-10-24T02:12:56.458Z,100437.81
2022-10-24T02:15:22.767Z,100437.00
2022-10-24T02:17:49.052Z,100441.34
2022-10-24T02:20:15.584Z,100434.31
2022-10-24T02:22:42.581Z,100440.75
2022-10-24T02:25:08.910Z,100442.38
2022-10-24T02:27:35.267Z,100447.78
2022-10-24T02:30:01.649Z,100449.44
2022-10-24T02:32:28.239Z,100456.94
2022-10-24T02:34:54.533Z,100455.06
2022-10-24T02:37:20.993Z,100461.50
2022-10-24T02:39:47.301Z,100456.94
2022-10-24T02:42:13.682Z,100462.56
2022-10-24T02:44:39.923Z,100471.47
2022-10-24T02:47:06.161Z,100469.59
2022-10-24T02:49:32.421Z,100476.63
2022-10-24T02:51:58.955Z,100477.44
2022-10-24T02:54:25.897Z,100483.06
2022-10-24T02:56:52.198Z,100474.19
2022-10-24T02:59:18.542Z,100478.50
2022-10-24T03:01:44.952Z,100473.34
2022-10-24T03:04:11.322Z,100466.34
2022-10-24T03:06:38.307Z,100461.78
2022-10-24T03:09:04.606Z,100459.88
2022-10-24T03:11:31.889Z,100453.41
2022-10-24T03:13:58.167Z,100451.00
2022-10-24T03:16:24.480Z,100455.56
2022-10-24T03:18:50.909Z,100459.31
2022-10-24T03:21:17.392Z,100463.63
2022-10-24T03:23:43.676Z,100454.72
2022-10-24T03:26:09.947Z,100448.28
2022-10-24T03:28:36.386Z,100447.72
2022-10-24T03:31:02.917Z,100442.91
2022-10-24T03:33:29.306Z,100450.16
2022-10-24T03:35:55.646Z,100448.78
2022-10-24T03:38:22.104Z,100446.63
2022-10-24T03:40:48.433Z,100445.00
2022-10-24T03:43:14.817Z,100440.69
2022-10-24T03:45:41.164Z,100451.22
2022-10-24T03:48:07.684Z,100446.63
2022-10-24T03:50:34.019Z,100455.78
2022-10-24T03:53:00.451Z,100456.88
2022-10-24T03:55:26.840Z,100447.94
2022-10-24T03:57:53.133Z,100446.88
2022-10-24T04:00:19.471Z,100452.28
2022-10-24T04:02:45.816Z,100453.34
2022-10-24T04:05:13.682Z,100447.72
2022-10-24T04:07:39.939Z,100443.38
2022-10-24T04:10:06.152Z,100451.47
2022-10-24T04:12:32.561Z,100455.25
2022-10-24T04:15:02.436Z,100457.09
2022-10-24T04:17:31.956Z,100457.09
2022-10-24T04:19:58.279Z,100466.03
2022-10-24T04:22:24.524Z,100461.66
2022-10-24T04:24:50.803Z,100456.56
2022-10-24T04:27:17.097Z,100461.66
2022-10-24T04:29:43.734Z,100467.88
2022-10-24T04:32:10.125Z,100470.28
2022-10-24T04:34:36.514Z,100472.44
2022-10-24T04:37:02.780Z,100461.13
2022-10-24T04:39:29.204Z,100463.56
2022-10-24T04:41:55.726Z,100467.34
2022-10-24T04:44:22.145Z,100472.72
2022-10-24T04:46:50.715Z,100467.56
2022-10-24T04:49:18.666Z,100470.81
2022-10-24T04:51:45.251Z,100476.22
2022-10-24T04:54:11.875Z,100476.22
2022-10-24T04:56:38.295Z,100477.03
2022-10-24T04:59:04.598Z,100481.59
2022-10-24T05:01:30.934Z,100480.81
2022-10-24T05:03:57.445Z,100479.16
2022-10-24T05:06:23.749Z,100468.38
2022-10-24T05:08:50.107Z,100470.03
2022-10-24T05:11:16.723Z,100468.38
2022-10-24T05:13:43.264Z,100469.19
2022-10-24T05:16:10.055Z,100474.59
2022-10-24T05:18:36.371Z,100471.31
2022-10-24T05:21:02.679Z,100470.28
2022-10-24T05:23:28.989Z,100472.97
2022-10-24T05:25:55.517Z,100482.91
2022-10-24T05:28:21.822Z,100485.59
2022-10-24T05:30:48.161Z,100484.78
2022-10-24T05:33:14.489Z,100477.53
2022-10-24T05:35:40.845Z,100487.47
2022-10-24T05:38:07.273Z,100482.09
2022-10-24T05:40:33.833Z,100476.47
2022-10-24T05:43:00.307Z,100483.16
2022-10-24T05:45:27.449Z,100476.97
2022-10-24T05:47:53.800Z,100469.91
2022-10-24T05:50:20.152Z,100476.13
2022-10-24T05:52:47.275Z,100479.66
2022-10-24T05:55:16.948Z,100479.66
2022-10-24T06:00:17.568Z,100480.47
2022-10-24T06:02:43.984Z,100475.91
2022-10-24T06:05:10.378Z,100475.31
2022-10-24T06:07:36.589Z,100475.91
2022-10-24T06:10:03.066Z,100476.13
2022-10-24T06:12:29.473Z,100480.94
2022-10-24T06:14:56.049Z,100472.38
2022-10-24T06:17:22.549Z,100484.22
2022-10-24T06:22:20.358Z,100508.47
2022-10-24T06:24:46.905Z,100498.78
2022-10-24T06:27:13.588Z,100498.78
2022-10-24T06:29:40.207Z,100493.38
2022-10-24T06:32:06.658Z,100496.31
2022-10-24T06:34:33.007Z,100503.56
2022-10-24T06:36:59.273Z,100497.13
2022-10-24T06:39:25.821Z,100473.13
2022-10-24T06:41:52.147Z,100470.44
2022-10-24T06:44:18.494Z,100472.31
2022-10-24T06:46:44.764Z,100484.72
2022-10-24T06:49:11.436Z,100483.09
2022-10-24T06:51:37.735Z,100493.13
2022-10-24T06:56:43.932Z,100492.56
2022-10-24T06:59:11.140Z,100493.38
2022-10-24T07:01:37.747Z,100492.56
2022-10-24T07:04:04.056Z,100500.41
2022-10-24T07:06:30.404Z,100491.25
2022-10-24T07:08:56.670Z,100485.84
2022-10-24T07:11:23.072Z,100480.81
2022-10-24T07:13:49.454Z,100488.00
2022-10-24T07:16:15.966Z,100485.06
2022-10-24T07:18:42.326Z,100487.75
2022-10-24T07:21:08.732Z,100492.88
2022-10-24T07:23:35.018Z,100484.78
2022-10-24T07:26:01.336Z,100485.13
2022-10-24T07:28:27.735Z,100484.06
2022-10-24T07:30:54.026Z,100500.22
2022-10-24T07:33:20.328Z,100503.47
2022-10-24T07:35:46.739Z,100506.19
2022-10-24T07:38:16.442Z,100505.38
2022-10-24T07:40:44.885Z,100511.91
2022-10-24T07:43:11.225Z,100510.53
2022-10-24T07:45:37.685Z,100521.31
2022-10-24T07:48:04.267Z,100517.78
2022-10-24T07:50:30.624Z,100513.47
2022-10-24T07:52:56.956Z,100528.81
2022-10-24T07:55:23.214Z,100517.22
2022-10-24T07:57:49.782Z,100522.63
2022-10-24T08:00:16.622Z,100513.47
2022-10-24T08:02:43.099Z,100507.50
2022-10-24T08:05:09.601Z,100511.00
2022-10-24T08:07:35.909Z,100504.00
2022-10-24T08:10:02.351Z,100502.94
2022-10-24T08:12:28.725Z,100511.25
2022-10-24T08:14:55.068Z,100511.84
2022-10-24T08:17:22.135Z,100506.69
2022-10-24T08:19:48.713Z,100504.00
2022-10-24T08:22:15.271Z,100505.88
2022-10-24T08:24:41.665Z,100496.16
2022-10-24T08:27:08.155Z,100498.84
2022-10-24T08:29:34.466Z,100496.16
2022-10-24T08:32:00.765Z,100513.94
2022-10-24T08:34:27.167Z,100508.81
2022-10-24T08:36:53.589Z,100515.56
2022-10-24T08:39:19.919Z,100513.16
2022-10-24T08:41:46.435Z,100521.25
2022-10-24T08:44:12.777Z,100521.78
2022-10-24T08:46:39.525Z,100526.34
2022-10-24T08:49:06.006Z,100505.63
2022-10-24T08:51:32.368Z,100504.78
2022-10-24T08:53:58.722Z,100507.50
2022-10-24T08:56:25.011Z,100511.84
2022-10-24T08:58:51.558Z,100511.84
2022-10-24T09:01:18.072Z,100513.94
2022-10-24T09:03:55.503Z,100517.72
2022-10-24T09:06:22.701Z,100518.28
2022-10-24T09:08:49.395Z,100519.34
2022-10-24T09:11:15.895Z,100521.25
2022-10-24T09:13:42.508Z,100517.72
2022-10-24T09:16:08.793Z,100530.13
2022-10-24T09:18:35.257Z,100525.78
2022-10-24T09:21:01.651Z,100523.94
2022-10-24T09:23:28.363Z,100521.47
2022-10-24T09:25:54.693Z,100520.41
2022-10-24T09:28:21.234Z,100523.09
2022-10-24T09:30:47.737Z,100518.53
2022-10-24T09:33:14.133Z,100512.31
2022-10-24T09:38:21.038Z,100507.75
2022-10-24T09:40:47.499Z,100512.31
2022-10-24T09:43:13.789Z,100500.72
2022-10-24T09:45:40.264Z,100504.25
2022-10-24T09:48:06.900Z,100505.31
2022-10-24T09:50:33.243Z,100507.75
2022-10-24T09:52:59.770Z,100505.06
2022-10-24T09:55:26.291Z,100512.31
2022-10-24T09:57:52.630Z,100506.94
2022-10-24T10:00:19.010Z,100514.19
2022-10-24T10:02:45.848Z,100512.31
2022-10-24T10:05:12.248Z,100511.50
2022-10-24T10:07:38.522Z,100516.88
2022-10-24T10:10:04.954Z,100512.31
2022-10-24T10:12:31.301Z,100508.31
2022-10-24T10:14:57.738Z,100512.31
2022-10-24T10:17:24.672Z,100508.81
2022-10-24T10:19:51.049Z,100512.31
2022-10-24T10:22:24.801Z,100499.91
2022-10-24T10:24:51.119Z,100496.38
2022-10-24T10:27:17.504Z,100491.84
2022-10-24T10:29:43.974Z,100493.69
2022-10-24T10:32:10.408Z,100489.94
2022-10-24T10:34:36.807Z,100497.22
2022-10-24T10:37:03.152Z,100492.63
2022-10-24T10:39:29.496Z,100489.94
2022-10-24T10:44:27.218Z,100497.22
2022-10-24T10:46:53.615Z,100485.59
2022-10-24T10:49:19.944Z,100499.09
2022-10-24T10:51:46.377Z,100496.63
2022-10-24T10:54:12.675Z,100491.25
2022-10-24T10:56:39.291Z,100487.47
2022-10-24T10:59:06.637Z,100491.25
2022-10-24T11:01:33.433Z,100503.66
2022-10-24T11:04:00.038Z,100497.22
2022-10-24T11:06:26.380Z,100497.22
2022-10-24T11:08:52.794Z,100487.47
2022-10-24T11:11:19.181Z,100491.25
2022-10-24T11:13:46.215Z,100493.47
2022-10-24T11:16:12.470Z,100487.47
2022-10-24T11:18:38.936Z,100487.47
2022-10-24T11:21:05.392Z,100488.31
2022-10-24T11:28:46.145Z,100494.53
2022-10-24T11:31:12.494Z,100495.09
2022-10-24T11:33:38.754Z,100499.69
2022-10-24T11:36:05.093Z,100507.50
2022-10-24T11:38:31.498Z,100503.75
2022-10-24T11:40:58.913Z,100507.25
2022-10-24T11:43:27.285Z,100509.94
2022-10-24T11:45:53.888Z,100499.75
2022-10-24T11:48:20.192Z,100504.31
2022-10-24T11:50:46.576Z,100506.44
2022-10-24T11:53:13.023Z,100504.56
2022-10-24T11:55:40.212Z,100498.38
2022-10-24T11:58:07.353Z,100502.09
2022-10-24T12:00:33.780Z,100503.75
2022-10-24T12:05:29.265Z,100494.00
2022-10-24T12:07:55.537Z,100483.22
2022-10-24T12:10:23.297Z,100485.94
2022-10-24T12:12:49.758Z,100473.28
2022-10-24T12:15:16.281Z,100465.19
2022-10-24T12:17:43.008Z,100471.41
2022-10-24T12:20:09.732Z,100467.66
2022-10-24T12:22:35.999Z,100465.19
2022-10-24T12:27:38.165Z,100464.13
2022-10-24T12:30:04.577Z,100466.03
2022-10-24T12:32:30.839Z,100460.63
2022-10-24T12:35:12.312Z,100458.19
2022-10-24T12:37:46.830Z,100457.09
2022-10-24T12:40:13.825Z,100442.38
2022-10-24T12:42:40.256Z,100444.47
2022-10-24T12:45:07.260Z,100436.38
2022-10-24T12:47:33.749Z,100436.63
2022-10-24T12:50:00.007Z,100433.91
2022-10-24T12:52:26.456Z,100430.41
2022-10-24T12:54:52.705Z,100428.78
2022-10-24T12:57:19.021Z,100429.59
2022-10-24T12:59:45.374Z,100425.84
2022-10-24T13:02:12.023Z,100411.78
2022-10-24T13:04:38.505Z,100409.91
2022-10-24T13:07:04.862Z,100410.72
2022-10-24T13:09:32.157Z,100404.50
2022-10-24T13:11:58.455Z,100412.59
2022-10-24T13:14:24.766Z,100406.13
2022-10-24T13:16:51.066Z,100412.59
2022-10-24T13:19:17.675Z,100424.22
2022-10-24T13:21:46.360Z,100424.44
2022-10-24T13:24:13.288Z,100423.38
2022-10-24T13:26:39.579Z,100425.25
2022-10-24T13:29:06.029Z,100432.28
2022-10-24T13:31:32.426Z,100432.28
2022-10-24T13:33:58.729Z,100436.03
2022-10-24T13:36:28.404Z,100440.38
2022-10-24T13:38:55.025Z,100439.56
2022-10-24T13:41:21.688Z,100438.72
2022-10-24T13:43:48.030Z,100441.41
2022-10-24T13:46:14.428Z,100435.22
2022-10-24T13:48:40.847Z,100440.63
2022-10-24T13:51:07.153Z,100439.56
2022-10-24T13:53:33.596Z,100443.31
2022-10-24T13:55:59.798Z,100437.94
2022-10-24T13:58:26.088Z,100440.63
2022-10-24T14:00:52.345Z,100435.22
2022-10-24T14:03:18.695Z,100435.22
2022-10-24T14:05:45.265Z,100429.00
2022-10-24T14:08:11.678Z,100429.00
2022-10-24T14:10:37.958Z,100430.09
2022-10-24T14:13:04.273Z,100437.09
2022-10-24T14:15:30.853Z,100432.53
2022-10-24T14:17:57.117Z,100429.25
2022-10-24T14:20:23.393Z,100424.69
2022-10-24T14:22:49.806Z,100427.38
2022-10-24T14:25:18.697Z,100434.41
2022-10-24T14:27:47.315Z,100429.84
2022-10-24T14:30:13.925Z,100427.16
2022-10-24T14:35:09.458Z,100429.31
2022-10-24T14:37:35.746Z,100421.50
2022-10-24T14:40:02.129Z,100438.97
2022-10-24T14:42:28.634Z,100438.97
2022-10-24T14:44:58.175Z,100442.25
2022-10-24T14:47:24.782Z,100436.28
2022-10-24T14:49:51.300Z,100437.69
2022-10-24T14:52:17.602Z,100444.69
2022-10-24T14:54:44.004Z,100447.63
2022-10-24T14:57:12.882Z,100445.50
2022-10-24T14:59:39.908Z,100446.56
2022-10-24T15:02:06.287Z,100450.88
2022-10-24T15:04:32.552Z,100444.69
2022-10-24T15:06:58.812Z,100443.38
2022-10-24T15:09:25.124Z,100444.47
2022-10-24T15:11:51.444Z,100435.53
2022-10-24T15:14:17.716Z,100442.31
2022-10-24T15:16:44.071Z,100440.69
2022-10-24T15:19:10.454Z,100437.75
2022-10-24T15:21:36.744Z,100435.63
2022-10-24T15:24:03.252Z,100432.91
2022-10-24T15:26:29.509Z,100440.75
2022-10-24T15:28:55.846Z,100432.44
2022-10-24T15:31:22.501Z,100435.69
2022-10-24T15:33:48.819Z,100437.34
2022-10-24T15:36:15.210Z,100447.06
2022-10-24T15:38:41.592Z,100447.84
2022-10-24T15:41:07.924Z,100453.00
2022-10-24T15:43:34.196Z,100452.75
2022-10-24T15:46:00.471Z,100446.03
2022-10-24T15:48:26.829Z,100459.53
2022-10-24T15:50:53.103Z,100459.53
2022-10-24T15:53:19.657Z,100461.16
2022-10-24T15:55:46.081Z,100469.00
2022-10-24T15:58:12.408Z,100475.47
2022-10-24T16:00:38.713Z,100469.00
2022-10-24T16:03:05.381Z,100476.03
2022-10-24T16:05:31.684Z,100478.47
2022-10-24T16:07:58.081Z,100486.31
2022-10-24T16:10:24.828Z,100490.09
2022-10-24T16:12:51.141Z,100493.59
2022-10-24T16:15:17.964Z,100497.09
2022-10-24T16:17:44.451Z,100499.31
2022-10-24T16:20:10.941Z,100500.94
2022-10-24T16:22:37.695Z,100501.75
2022-10-24T16:25:03.995Z,100497.16
2022-10-24T16:27:30.284Z,100500.94
2022-10-24T16:29:56.650Z,100513.94
2022-10-24T16:32:22.965Z,100512.88
2022-10-24T16:34:49.295Z,100510.16
2022-10-24T16:37:15.555Z,100507.22
2022-10-24T16:39:42.106Z,100504.78
2022-10-24T16:42:09.485Z,100510.75
2022-10-24T16:44:35.901Z,100512.63
2022-10-24T16:47:02.228Z,100514.00
2022-10-24T16:49:28.709Z,100508.38
2022-10-24T16:51:55.061Z,100512.69
2022-10-24T16:54:21.533Z,100513.28
2022-10-24T16:56:52.537Z,100513.53
2022-10-24T16:59:20.014Z,100518.91
2022-10-24T17:01:46.485Z,100523.81
2022-10-24T17:04:13.181Z,100523.00
2022-10-24T17:06:39.643Z,100520.28
2022-10-24T17:09:05.939Z,100518.44
2022-10-24T17:11:44.761Z,100518.75
2022-10-24T17:14:12.214Z,100516.03
2022-10-24T17:16:38.479Z,100515.84
2022-10-24T17:19:15.774Z,100522.84
2022-10-24T17:21:43.251Z,100516.38
2022-10-24T17:24:09.504Z,100517.22
2022-10-24T17:26:35.836Z,100512.88
2022-10-24T17:29:02.197Z,100511.00
2022-10-24T17:31:28.434Z,100511.00
2022-10-24T17:33:54.714Z,100511.81
2022-10-24T17:36:21.452Z,100519.66
2022-10-24T17:38:47.893Z,100515.31
2022-10-24T17:41:14.147Z,100526.69
2022-10-24T17:43:40.532Z,100522.38
2022-10-24T17:46:06.770Z,100523.16
2022-10-24T17:48:33.075Z,100522.13
2022-10-24T17:50:59.413Z,100515.91
2022-10-24T17:53:25.885Z,100517.53
2022-10-24T17:55:52.177Z,100514.34
2022-10-24T17:58:18.409Z,100518.34
2022-10-24T18:00:45.514Z,100510.00
2022-10-24T18:03:12.011Z,100506.50
2022-10-24T18:05:38.887Z,100516.22
2022-10-24T18:08:05.570Z,100519.72
2022-10-24T18:10:34.714Z,100526.75
2022-10-24T18:13:01.192Z,100528.63
2022-10-24T18:15:27.482Z,100538.13
2022-10-24T18:17:53.885Z,100538.13
2022-10-24T18:20:20.299Z,100536.72
2022-10-24T18:22:46.789Z,100534.59
2022-10-24T18:25:13.203Z,100535.97
2022-10-24T18:27:39.603Z,100532.19
2022-10-24T18:30:06.012Z,100527.47
2022-10-24T18:32:32.398Z,100535.56
2022-10-24T18:34:58.793Z,100542.34
2022-10-24T18:37:25.063Z,100546.91
2022-10-24T18:39:51.367Z,100545.34
2022-10-24T18:42:17.594Z,100551.81
2022-10-24T18:44:46.463Z,100548.88
2022-10-24T18:47:18.763Z,100539.47
2022-10-24T18:49:47.423Z,100545.44
2022-10-24T18:52:13.769Z,100536.50
2022-10-24T18:54:40.206Z,100540.09
2022-10-24T18:57:06.515Z,100543.34
2022-10-24T18:59:32.877Z,100535.25
2022-10-24T19:01:59.479Z,100538.53
2022-10-24T19:04:26.066Z,100536.38
2022-10-24T19:06:52.390Z,100531.00
2022-10-24T19:09:18.920Z,100530.50
2022-10-24T19:11:45.248Z,100526.19
2022-10-24T19:14:11.481Z,100529.44
2022-10-24T19:16:37.895Z,100527.56
2022-10-24T19:19:04.472Z,100530.56
2022-10-24T19:21:30.828Z,100531.63
2022-10-24T19:23:57.079Z,100526.22
2022-10-24T19:26:23.419Z,100526.00
2022-10-24T19:28:49.723Z,100528.69
2022-10-24T19:31:16.011Z,100534.88
2022-10-24T19:33:42.544Z,100533.00
2022-10-24T19:36:09.359Z,100529.25
2022-10-24T19:38:35.847Z,100531.09
2022-10-24T19:41:02.253Z,100528.41
2022-10-24T19:43:28.924Z,100542.72
2022-10-24T19:46:07.621Z,100537.34
2022-10-24T19:48:34.723Z,100539.78
2022-10-24T19:51:01.303Z,100543.56
2022-10-24T19:53:27.568Z,100552.72
2022-10-24T19:55:54.265Z,100551.66
2022-10-24T19:58:20.636Z,100546.25
2022-10-24T20:00:47.043Z,100542.50
2022-10-24T20:03:13.402Z,100547.88
2022-10-24T20:05:40.018Z,100550.59
2022-10-24T20:08:06.377Z,100542.50
2022-10-24T20:10:32.746Z,100544.94
2022-10-24T20:12:59.076Z,100542.25
2022-10-24T20:15:25.793Z,100550.34
2022-10-24T20:17:52.339Z,100556.28
2022-10-24T20:20:18.641Z,100554.66
2022-10-24T20:22:45.304Z,100564.63
2022-10-24T20:25:11.779Z,100562.53
2022-10-24T20:27:38.128Z,100560.91
2022-10-24T20:30:04.466Z,100561.63
2022-10-24T20:32:30.729Z,100559.50
2022-10-24T20:34:57.035Z,100563.00
2022-10-24T20:37:23.560Z,100561.38
2022-10-24T20:39:49.984Z,100564.91
2022-10-24T20:42:16.282Z,100565.47
2022-10-24T20:44:42.637Z,100564.91
2022-10-24T20:47:08.913Z,100578.13
2022-10-24T20:49:35.308Z,100573.81
2022-10-24T20:52:01.940Z,100573.00
2022-10-24T20:54:28.388Z,100579.22
2022-10-24T20:56:54.924Z,100573.00
2022-10-24T20:59:21.430Z,100572.19
2022-10-24T21:01:47.858Z,100580.84
2022-10-24T21:04:17.024Z,100578.41
2022-10-24T21:06:46.242Z,100593.53
2022-10-24T21:09:12.522Z,100592.22
2022-10-24T21:11:38.830Z,100596.00
2022-10-24T21:14:05.130Z,100583.53
2022-10-24T21:16:31.638Z,100591.63
2022-10-24T21:18:57.903Z,100595.16
2022-10-24T21:21:24.249Z,100596.00
2022-10-24T21:23:50.456Z,100597.03
2022-10-24T21:26:17.007Z,100597.56
2022-10-24T21:28:43.448Z,100598.94
2022-10-24T21:31:09.736Z,100595.66
2022-10-24T21:33:36.014Z,100596.50
2022-10-24T21:36:02.317Z,100599.19
2022-10-24T21:38:28.615Z,100599.19
2022-10-24T21:40:54.923Z,100601.31
2022-10-24T21:43:21.202Z,100607.53
2022-10-24T21:45:47.574Z,100605.91
2022-10-24T21:48:15.877Z,100609.69
2022-10-24T21:50:42.500Z,100608.84
2022-10-24T21:53:08.796Z,100619.66
2022-10-24T21:55:35.108Z,100615.31
2022-10-24T21:58:01.613Z,100616.94
2022-10-24T22:00:27.921Z,100615.56
2022-10-24T22:02:54.274Z,100611.25
2022-10-24T22:05:20.634Z,100607.72
2022-10-24T22:07:49.527Z,100611.72
2022-10-24T22:10:16.158Z,100621.69
2022-10-24T22:12:42.418Z,100619.28
2022-10-24T22:15:08.716Z,100624.69
2022-10-24T22:17:35.017Z,100627.38
2022-10-24T22:20:01.261Z,100622.22
2022-10-24T22:22:27.563Z,100630.31
2022-10-24T22:24:54.010Z,100626.78
2022-10-24T22:27:20.333Z,100631.34
2022-10-24T22:29:47.024Z,100632.44
2022-10-24T22:32:13.627Z,100636.19
2022-10-24T22:34:40.021Z,100635.38
2022-10-24T22:37:06.330Z,100637.28
2022-10-24T22:39:32.800Z,100636.44
2022-10-24T22:41:59.258Z,100638.31
2022-10-24T22:44:25.641Z,100636.44
2022-10-24T22:46:51.924Z,100637.50
2022-10-24T22:49:18.221Z,100639.38
2022-10-24T22:51:44.619Z,100646.41
2022-10-24T22:54:10.889Z,100640.22
2022-10-24T22:56:37.172Z,100642.31
2022-10-24T22:59:03.761Z,100646.69
2022-10-24T23:01:30.437Z,100644.47
2022-10-24T23:03:56.967Z,100644.22
2022-10-24T23:06:23.378Z,100646.34
2022-10-24T23:08:49.652Z,100648.00
2022-10-24T23:11:15.945Z,100653.41
2022-10-24T23:13:42.259Z,100649.03
2022-10-24T23:16:08.493Z,100653.63
2022-10-24T23:18:34.761Z,100653.63
2022-10-24T23:21:01.026Z,100648.47
2022-10-24T23:23:29.538Z,100651.97
2022-10-24T23:25:56.117Z,100651.97
2022-10-24T23:28:22.448Z,100654.94
2022-10-24T23:30:48.802Z,100656.00
2022-10-24T23:33:15.101Z,100658.44
2022-10-24T23:35:41.400Z,100653.28
2022-10-24T23:38:08.184Z,100649.22
2022-10-24T23:40:34.604Z,100653.81
2022-10-24T23:43:01.015Z,100651.66
2022-10-24T23:45:27.288Z,100658.94
2022-10-24T23:47:53.582Z,100655.69
2022-10-24T23:50:19.954Z,100655.69
2022-10-24T23:52:46.678Z,100654.06
2022-10-24T23:55:13.321Z,100655.44
2022-10-24T23:57:39.787Z,100652.44
